Time;durP1;ratioP1;P1;durP2;ratioP2;P2;SDS_P1;SDS_P2;PMS_P1;PMS_P2;Temp;Humidity;BMP_temperature;BMP_pressure;BME280_temperature;BME280_humidity;BME280_pressure;Samples;Min_cycle;Max_cycle;Signal;HPM_P1;HPM_P2
2022/07/20 00:00:13;;;;;;;3.45;2.30;;;;;;;22.27;49.32;95254.72;5099447;28;20193;-89
2022/07/20 00:02:40;;;;;;;2.70;2.50;;;;;;;22.26;49.41;95253.13;5098467;28;20201;-91
2022/07/20 00:05:10;;;;;;;3.30;2.70;;;;;;;22.22;49.67;95246.69;5096085;28;20196;-89
2022/07/20 00:07:37;;;;;;;6.32;2.50;;;;;;;21.88;49.63;95198.06;5096526;28;20190;-90
2022/07/20 00:12:48;;;;;;;6.40;2.45;;;;;;;22.07;49.98;95229.59;5096320;28;20219;-92
2022/07/20 00:15:15;;;;;;;2.78;2.30;;;;;;;22.11;50.03;95242.03;5097250;28;20197;-80
2022/07/20 00:17:42;;;;;;;3.30;2.17;;;;;;;21.57;49.90;95166.50;5094068;28;20185;-80
2022/07/20 00:20:12;;;;;;;2.67;2.45;;;;;;;22.05;49.96;95234.97;5097681;28;20193;-82
2022/07/20 00:22:39;;;;;;;2.97;2.65;;;;;;;21.90;49.83;95218.72;5100942;28;20273;-92
2022/07/20 00:25:07;;;;;;;3.72;2.88;;;;;;;21.99;50.32;95223.56;5093906;28;20190;-81
2022/07/20 00:27:34;;;;;;;2.60;2.40;;;;;;;21.98;50.40;95226.38;5094192;28;20181;-81
2022/07/20 00:30:03;;;;;;;5.78;2.45;;;;;;;21.94;50.58;95225.94;5093221;28;20300;-80
2022/07/20 00:32:29;;;;;;;3.37;2.53;;;;;;;21.76;50.74;95194.41;5093825;28;20314;-81
2022/07/20 00:34:59;;;;;;;3.90;2.45;;;;;;;20.95;50.60;95082.34;5093180;28;20190;-80
2022/07/20 00:37:27;;;;;;;3.78;2.53;;;;;;;21.68;50.52;95197.19;5093387;28;20272;-80
2022/07/20 00:39:54;;;;;;;2.83;2.63;;;;;;;21.81;50.71;95223.28;5093233;28;20780;-81
2022/07/20 00:42:21;;;;;;;3.33;2.83;;;;;;;21.61;50.79;95204.97;5092950;28;20193;-82
2022/07/20 00:44:48;;;;;;;3.07;2.77;;;;;;;21.73;50.72;95237.28;5093854;28;20607;-82
2022/07/20 00:47:14;;;;;;;5.40;2.83;;;;;;;21.73;50.61;95239.06;5094734;28;20244;-82
2022/07/20 00:49:41;;;;;;;4.63;2.40;;;;;;;21.70;50.70;95236.84;5094098;28;20193;-81
2022/07/20 00:52:08;;;;;;;4.10;2.43;;;;;;;21.67;50.84;95234.63;5094445;28;20581;-82
2022/07/20 00:54:39;;;;;;;2.80;2.60;;;;;;;21.62;51.02;95235.19;5093809;28;20677;-81
2022/07/20 00:57:06;;;;;;;2.60;2.38;;;;;;;21.59;51.15;95234.78;5092310;28;20569;-82
2022/07/20 00:59:33;;;;;;;5.93;2.80;;;;;;;21.56;51.21;95235.97;5092501;28;20195;-80
2022/07/20 01:02:00;;;;;;;4.13;2.43;;;;;;;21.52;51.25;95238.16;5093033;28;20189;-86
2022/07/20 01:04:27;;;;;;;4.40;2.37;;;;;;;20.51;51.34;95079.06;5094050;28;20196;-82
2022/07/20 01:06:54;;;;;;;10.50;3.17;;;;;;;21.47;51.57;95231.94;5093295;28;20197;-81
2022/07/20 01:09:21;;;;;;;6.43;2.50;;;;;;;;;;5093282;28;20178;-85
2022/07/20 01:11:49;;;;;;;4.75;2.92;;;;;;;21.39;51.40;95229.47;5091876;28;20252;-81
2022/07/20 01:14:16;;;;;;;3.03;2.75;;;;;;;21.37;51.34;95229.66;5092096;28;20197;-81
2022/07/20 01:16:43;;;;;;;5.93;2.90;;;;;;;21.36;51.31;95224.66;5091562;28;20664;-81
2022/07/20 01:19:10;;;;;;;5.73;2.43;;;;;;;21.35;51.32;95225.66;5092342;28;20209;-81
2022/07/20 01:21:41;;;;;;;3.67;2.60;;;;;;;21.13;51.77;95201.47;5092380;28;20665;-80
2022/07/20 01:24:09;;;;;;;2.90;2.70;;;;;;;21.27;52.06;95229.16;5092483;28;20637;-81
2022/07/20 01:26:37;;;;;;;3.85;2.90;;;;;;;21.22;52.03;95231.53;5092500;28;20219;-82
2022/07/20 01:29:04;;;;;;;3.93;2.83;;;;;;;21.19;52.16;95235.31;5093701;28;20266;-85
2022/07/20 01:31:31;;;;;;;6.97;3.03;;;;;;;21.16;52.20;95234.91;5093227;28;20640;-90
2022/07/20 01:33:58;;;;;;;5.80;2.63;;;;;;;20.69;52.26;95156.56;5093405;28;20197;-85
2022/07/20 01:36:25;;;;;;;4.30;2.90;;;;;;;21.10;52.55;95226.06;5102118;28;20186;-90
2022/07/20 01:38:53;;;;;;;6.90;2.90;;;;;;;20.96;52.59;95206.94;5101998;28;20197;-91
2022/07/20 01:41:21;;;;;;;6.00;3.03;;;;;;;21.04;52.42;95229.41;5094596;28;20190;-90
2022/07/20 01:43:48;;;;;;;3.93;3.00;;;;;;;20.88;52.56;95204.50;5093803;28;20581;-87
2022/07/20 01:46:15;;;;;;;8.67;3.17;;;;;;;20.84;52.64;95205.06;5093731;28;20221;-91
2022/07/20 01:48:42;;;;;;;6.33;3.03;;;;;;;19.62;52.67;95023.38;5093359;28;20196;-86
2022/07/20 01:51:09;;;;;;;3.60;2.67;;;;;;;20.90;52.61;95225.91;5093664;28;20194;-90
2022/07/20 01:53:36;;;;;;;5.07;3.00;;;;;;;20.66;52.73;95190.72;5095776;28;20355;-91
2022/07/20 01:56:05;;;;;;;5.73;2.60;;;;;;;20.37;52.82;95157.06;5094059;28;20182;-91
2022/07/20 01:58:32;;;;;;;4.37;2.90;;;;;;;20.81;52.93;95229.63;5096368;28;20212;-89
2022/07/20 02:00:59;;;;;;;4.07;2.40;;;;;;;20.79;52.98;95229.03;5095847;28;20212;-92
2022/07/20 02:03:25;;;;;;;8.70;2.97;;;;;;;20.76;52.90;95242.38;5104761;28;20185;-83
2022/07/20 02:05:52;;;;;;;6.37;3.33;;;;;;;20.73;52.99;95240.97;5116668;28;20177;-84
2022/07/20 02:08:19;;;;;;;4.37;2.93;;;;;;;20.69;52.99;95239.75;5108418;28;20212;-92
2022/07/20 02:10:46;;;;;;;6.37;3.00;;;;;;;20.68;53.00;95235.53;5096149;28;20185;-87
2022/07/20 02:13:14;;;;;;;7.60;2.93;;;;;;;20.13;53.25;95166.84;5093048;28;20394;-91
2022/07/20 02:18:25;;;;;;;4.13;2.77;;;;;;;20.60;53.43;95250.47;5091239;28;20185;-82
2022/07/20 02:20:52;;;;;;;2.70;2.50;;;;;;;20.57;53.60;95246.44;5090957;28;20190;-84
2022/07/20 02:23:19;;;;;;;4.70;2.63;;;;;;;20.52;53.51;95249.59;5091108;28;20185;-83
2022/07/20 02:25:46;;;;;;;10.60;3.23;;;;;;;20.50;53.36;95246.34;5090609;28;20189;-82
2022/07/20 02:28:14;;;;;;;3.10;2.80;;;;;;;20.48;53.48;95247.53;5091343;28;20192;-86
2022/07/20 02:30:41;;;;;;;4.73;2.80;;;;;;;20.46;53.69;95242.47;5095385;28;20193;-86
2022/07/20 02:33:08;;;;;;;3.50;3.13;;;;;;;20.30;53.76;95219.34;5095067;28;20228;-81
2022/07/20 02:35:35;;;;;;;4.60;2.30;;;;;;;20.43;53.85;95240.28;5095178;28;20262;-80
2022/07/20 02:38:02;;;;;;;4.00;2.80;;;;;;;20.43;54.09;95245.47;5095217;28;20212;-82
2022/07/20 02:40:29;;;;;;;3.73;2.50;;;;;;;20.43;54.13;95237.69;5094980;28;20181;-81
2022/07/20 02:42:56;;;;;;;3.33;2.53;;;;;;;20.40;54.12;95248.44;5095127;28;20182;-82
2022/07/20 02:45:24;;;;;;;7.43;2.90;;;;;;;20.35;54.01;95242.97;5095245;28;20197;-90
2022/07/20 02:47:51;;;;;;;3.93;3.00;;;;;;;20.30;54.12;95246.13;5098457;28;20565;-88
2022/07/20 02:50:18;;;;;;;6.20;2.97;;;;;;;20.33;53.88;95244.16;5097260;28;20205;-82
2022/07/20 02:52:45;;;;;;;5.03;2.73;;;;;;;20.30;54.00;95251.34;5096486;28;20216;-88
2022/07/20 02:55:12;;;;;;;5.40;2.83;;;;;;;20.28;53.85;95255.09;5096278;28;20196;-93
2022/07/20 02:57:39;;;;;;;3.47;3.00;;;;;;;20.24;54.04;95252.06;5096575;28;20189;-89
2022/07/20 03:00:08;;;;;;;5.93;2.50;;;;;;;20.23;54.09;95258.25;5096866;28;20189;-91
2022/07/20 03:02:36;;;;;;;6.03;2.80;;;;;;;20.22;54.22;95264.44;5096225;28;20292;-89
2022/07/20 03:05:03;;;;;;;4.43;3.00;;;;;;;20.17;54.05;95261.59;5096878;28;20196;-90
2022/07/20 03:07:31;;;;;;;8.33;3.27;;;;;;;20.01;54.29;95238.41;5114419;28;20193;-87
2022/07/20 03:09:58;;;;;;;4.83;2.83;;;;;;;19.77;54.52;95201.41;5100213;28;20198;-86
2022/07/20 03:12:25;;;;;;;4.30;2.80;;;;;;;20.10;54.59;95257.28;5096995;28;20225;-86
2022/07/20 03:14:52;;;;;;;3.83;3.03;;;;;;;20.08;54.77;95260.09;5096552;28;20196;-81
2022/07/20 03:17:19;;;;;;;4.13;2.40;;;;;;;20.10;54.66;95263.28;5094778;28;20189;-81
2022/07/20 03:19:47;;;;;;;5.93;2.77;;;;;;;20.09;54.88;95264.28;5094160;28;20201;-81
2022/07/20 03:22:14;;;;;;;3.30;2.70;;;;;;;19.99;54.78;95250.75;5094713;28;20194;-84
2022/07/20 03:24:41;;;;;;;10.67;3.37;;;;;;;19.38;54.96;95154.97;5096932;28;20185;-84
2022/07/20 03:27:08;;;;;;;7.83;3.00;;;;;;;20.04;54.87;95269.22;5094653;28;20652;-84
2022/07/20 03:29:36;;;;;;;5.73;2.73;;;;;;;20.03;55.03;95267.59;5095453;28;20205;-82
2022/07/20 03:32:05;;;;;;;9.27;3.03;;;;;;;19.86;55.04;95245.41;5095235;28;20220;-84
2022/07/20 03:34:32;;;;;;;4.57;3.20;;;;;;;19.97;55.22;95276.91;5095232;28;20656;-86
2022/07/20 03:37:00;;;;;;;6.80;3.10;;;;;;;19.93;55.60;95280.88;5094499;28;20196;-86
2022/07/20 03:39:27;;;;;;;10.10;3.37;;;;;;;19.93;55.49;95280.06;5094393;28;20190;-83
2022/07/20 03:41:54;;;;;;;8.57;2.93;;;;;;;19.47;55.68;95213.59;5095217;28;20668;-83
2022/07/20 03:44:22;;;;;;;6.63;3.10;;;;;;;19.66;55.64;95250.38;5097710;28;20177;-81
2022/07/20 03:46:49;;;;;;;7.53;2.93;;;;;;;19.88;55.54;95283.19;5111427;28;20225;-80
2022/07/20 03:49:15;;;;;;;4.53;3.33;;;;;;;19.59;55.63;95233.88;5114505;28;20196;-82
2022/07/20 03:51:42;;;;;;;3.87;2.60;;;;;;;19.54;55.79;95240.41;5119128;28;20190;-82
2022/07/20 03:54:11;;;;;;;6.40;2.97;;;;;;;19.83;55.96;95285.53;5117618;28;20251;-83
2022/07/20 03:56:40;;;;;;;4.27;3.10;;;;;;;19.41;55.71;95218.69;5118020;28;20170;-85
2022/07/20 03:59:08;;;;;;;7.00;3.10;;;;;;;19.86;55.63;95280.00;5114642;28;20193;-84
2022/07/20 04:01:35;;;;;;;4.13;3.07;;;;;;;19.85;55.67;95285.34;5101437;28;20193;-87
2022/07/20 04:04:02;;;;;;;4.57;2.97;;;;;;;19.54;55.96;95250.78;5111075;28;20189;-87
2022/07/20 04:06:29;;;;;;;6.77;3.03;;;;;;;19.84;55.72;95286.34;5108496;28;20687;-92
2022/07/20 04:08:56;;;;;;;3.53;2.97;;;;;;;19.83;55.36;95290.72;5097042;28;20611;-81
2022/07/20 04:11:25;;;;;;;3.80;3.17;;;;;;;18.64;55.53;95102.31;5099015;28;20927;-83
2022/07/20 04:13:52;;;;;;;5.33;3.20;;;;;;;19.45;55.59;95227.72;5097480;28;20228;-82
2022/07/20 04:16:19;;;;;;;4.13;3.00;;;;;;;19.83;55.47;95287.34;5097046;28;20193;-82
2022/07/20 04:18:46;;;;;;;9.27;3.20;;;;;;;19.83;55.60;95287.34;5098501;28;20669;-82
2022/07/20 04:21:14;;;;;;;3.90;3.00;;;;;;;19.51;55.86;95242.56;5094497;28;20197;-81
2022/07/20 04:23:41;;;;;;;9.17;3.33;;;;;;;19.21;55.70;95198.47;5093103;28;20198;-81
2022/07/20 04:26:08;;;;;;;6.27;3.33;;;;;;;19.84;55.58;95292.34;5093183;28;20229;-87
2022/07/20 04:28:37;;;;;;;6.40;3.57;;;;;;;19.87;55.23;95286.00;5092887;28;20182;-81
2022/07/20 04:31:04;;;;;;;4.60;2.97;;;;;;;19.87;55.66;95293.78;5092097;28;20200;-82
2022/07/20 04:33:31;;;;;;;6.23;2.90;;;;;;;19.86;55.64;95294.72;5094198;28;20221;-82
2022/07/20 04:35:58;;;;;;;5.30;2.90;;;;;;;19.43;55.57;95225.31;5093393;28;20671;-84
2022/07/20 04:38:25;;;;;;;3.80;2.70;;;;;;;19.44;55.29;95229.50;5093360;28;20190;-82
2022/07/20 04:40:52;;;;;;;4.77;2.67;;;;;;;19.18;53.81;95185.06;5092554;28;20189;-81
2022/07/20 04:43:20;;;;;;;8.00;2.87;;;;;;;19.74;54.02;95291.81;5092686;28;20196;-81
2022/07/20 04:45:48;;;;;;;7.47;3.30;;;;;;;19.52;54.19;95286.50;5093668;28;20316;-81
2022/07/20 04:48:15;;;;;;;7.90;4.17;;;;;;;19.33;54.40;95261.06;5094130;28;20186;-89
2022/07/20 04:50:42;;;;;;;3.93;2.90;;;;;;;19.67;54.65;95303.88;5094878;28;20197;-89
2022/07/20 04:53:10;;;;;;;4.77;3.00;;;;;;;19.72;54.61;95314.53;5095381;28;20222;-87
2022/07/20 04:55:37;;;;;;;7.13;3.23;;;;;;;19.76;54.52;95305.41;5095198;28;20194;-90
2022/07/20 04:58:04;;;;;;;5.43;3.17;;;;;;;19.80;54.26;95314.44;5094059;28;20177;-84
2022/07/20 05:00:46;;;;;;;4.50;3.43;;;;;;;19.84;54.48;95318.28;5094091;28;20193;-87
2022/07/20 05:03:14;;;;;;;3.53;2.97;;;;;;;19.89;54.08;95312.56;5093862;28;20201;-87
2022/07/20 05:05:41;;;;;;;5.40;2.90;;;;;;;19.89;54.42;95312.56;5094082;28;20676;-82
2022/07/20 05:08:08;;;;;;;7.50;3.23;;;;;;;19.65;54.25;95266.94;5094146;28;20221;-90
2022/07/20 05:10:36;;;;;;;5.30;3.10;;;;;;;19.68;54.45;95266.56;5095023;28;20184;-85
2022/07/20 05:13:03;;;;;;;4.47;2.83;;;;;;;20.02;54.33;95310.94;5094249;28;20296;-91
2022/07/20 05:15:30;;;;;;;4.17;2.90;;;;;;;20.08;54.53;95316.38;5095037;28;20196;-86
2022/07/20 05:17:57;;;;;;;6.10;3.33;;;;;;;20.20;54.87;95313.13;5097342;28;20201;-90
2022/07/20 05:20:25;;;;;;;4.43;3.00;;;;;;;20.32;54.43;95320.47;5098997;28;20212;-91
2022/07/20 05:22:52;;;;;;;3.97;3.07;;;;;;;20.46;54.49;95320.44;5099755;28;20198;-91
2022/07/20 05:25:19;;;;;;;5.47;3.00;;;;;;;20.62;54.70;95329.03;5097903;28;20182;-92
2022/07/20 05:27:46;;;;;;;6.03;3.30;;;;;;;20.71;54.10;95326.13;5101902;28;20182;-82
2022/07/20 05:30:13;;;;;;;4.30;3.20;;;;;;;20.80;53.07;95324.22;5115345;28;20193;-89
2022/07/20 05:32:41;;;;;;;8.17;3.73;;;;;;;20.97;53.46;95320.38;5111454;28;20204;-90
2022/07/20 05:35:09;;;;;;;5.03;2.70;;;;;;;21.10;52.84;95326.69;5111538;28;20210;-88
2022/07/20 05:37:38;;;;;;;6.57;3.40;;;;;;;20.81;54.45;95242.63;5113117;28;20182;-85
2022/07/20 05:40:07;;;;;;;6.63;3.13;;;;;;;21.41;54.90;95302.94;5113540;28;20221;-83
2022/07/20 05:42:34;;;;;;;4.03;3.20;;;;;;;21.72;52.99;95321.59;5116485;28;20181;-83
2022/07/20 05:45:00;;;;;;;7.95;3.00;;;;;;;21.68;50.54;95296.94;5108084;28;20194;-90
2022/07/20 05:47:27;;;;;;;4.75;2.72;;;;;;;21.90;50.65;95315.06;5095965;28;20229;-93
2022/07/20 05:49:54;;;;;;;5.17;2.83;;;;;;;21.93;50.83;95312.88;5096070;28;20193;-91
2022/07/20 05:52:21;;;;;;;3.65;2.83;;;;;;;22.10;50.15;95323.78;5094937;28;20276;-87
2022/07/20 05:54:49;;;;;;;3.75;2.63;;;;;;;22.23;50.68;95323.06;5092814;28;20225;-82
2022/07/20 05:57:16;;;;;;;3.90;3.05;;;;;;;22.33;49.71;95325.31;5091698;28;20200;-82
2022/07/20 05:59:45;;;;;;;8.80;2.90;;;;;;;22.08;49.69;95268.47;5084174;28;20367;-81
2022/07/20 06:02:11;;;;;;;4.82;3.00;;;;;;;21.93;48.97;95239.13;5090482;28;20277;-85
2022/07/20 06:04:38;;;;;;;4.90;2.92;;;;;;;22.42;49.13;95322.34;5090403;28;20193;-81
2022/07/20 06:07:05;;;;;;;9.73;3.53;;;;;;;22.41;49.48;95328.56;5090292;28;20189;-82
2022/07/20 06:09:36;;;;;;;10.38;3.05;;;;;;;21.92;50.41;95238.34;5091503;28;20177;-82
2022/07/20 06:12:04;;;;;;;4.93;3.00;;;;;;;22.56;50.23;95325.00;5090191;28;20284;-84
2022/07/20 06:14:32;;;;;;;6.75;3.03;;;;;;;22.77;50.31;95330.84;5090126;28;20205;-84
2022/07/20 06:17:00;;;;;;;3.38;2.72;;;;;;;22.98;49.85;95322.09;5090265;28;20684;-85
2022/07/20 06:19:27;;;;;;;5.25;3.45;;;;;;;23.20;49.69;95335.75;5090100;28;20186;-84
2022/07/20 06:21:54;;;;;;;9.15;3.97;;;;;;;23.39;48.99;95339.38;5089839;28;20246;-85
2022/07/20 06:24:22;;;;;;;8.02;3.10;;;;;;;22.32;47.59;95160.31;5090315;28;20193;-79
2022/07/20 06:26:49;;;;;;;5.95;2.80;;;;;;;23.53;47.40;95337.53;5091040;28;20272;-82
2022/07/20 06:29:17;;;;;;;5.90;3.30;;;;;;;23.65;47.06;95338.56;5089782;28;20189;-81
2022/07/20 06:31:44;;;;;;;4.63;2.88;;;;;;;23.77;47.57;95331.72;5090693;28;20214;-88
2022/07/20 06:34:11;;;;;;;5.90;3.50;;;;;;;23.75;47.15;95297.19;5090474;28;20206;-84
2022/07/20 06:36:38;;;;;;;7.45;3.60;;;;;;;23.42;46.68;95213.66;5089476;28;20674;-83
2022/07/20 06:39:05;;;;;;;5.63;3.35;;;;;;;24.33;46.67;95312.06;5089856;28;20186;-83
2022/07/20 06:41:32;;;;;;;6.03;3.65;;;;;;;24.60;46.29;95320.59;5089813;28;20209;-89
2022/07/20 06:43:59;;;;;;;6.07;3.15;;;;;;;24.63;48.21;95288.81;5090700;28;20664;-82
2022/07/20 06:46:27;;;;;;;6.47;2.72;;;;;;;25.09;46.00;95319.13;5089627;28;20269;-82
2022/07/20 06:48:54;;;;;;;6.85;3.65;;;;;;;25.24;44.83;95310.97;5090004;28;20190;-82
2022/07/20 06:51:24;;;;;;;5.60;3.38;;;;;;;24.77;44.31;95219.69;5088957;28;20189;-82
2022/07/20 06:53:51;;;;;;;5.78;3.55;;;;;;;25.47;43.86;95313.78;5090000;28;20279;-85
2022/07/20 06:56:18;;;;;;;6.03;3.47;;;;;;;25.57;43.70;95310.69;5090093;28;20186;-86
2022/07/20 06:58:45;;;;;;;5.18;3.13;;;;;;;25.26;43.77;95260.00;5090080;28;20182;-85
2022/07/20 07:01:12;;;;;;;5.28;3.40;;;;;;;25.80;42.45;95315.31;5089941;28;20194;-85
2022/07/20 07:03:40;;;;;;;9.90;3.90;;;;;;;24.49;42.69;95101.63;5090490;28;20567;-86
2022/07/20 07:06:07;;;;;;;4.70;3.00;;;;;;;25.88;42.68;95319.47;5089975;28;20258;-86
2022/07/20 07:08:34;;;;;;;14.13;4.82;;;;;;;25.96;42.23;95308.72;5090259;28;20189;-87
2022/07/20 07:11:01;;;;;;;10.15;4.00;;;;;;;25.22;42.05;95175.03;5089920;28;20197;-84
2022/07/20 07:13:28;;;;;;;7.00;3.63;;;;;;;26.07;42.34;95305.34;5089540;28;20292;-87
2022/07/20 07:15:55;;;;;;;12.73;3.85;;;;;;;25.80;42.32;95260.28;5093746;28;20676;-86
2022/07/20 07:18:22;;;;;;;5.32;3.85;;;;;;;25.51;42.07;95204.94;5094052;28;20190;-86
2022/07/20 07:20:51;;;;;;;6.63;3.67;;;;;;;26.11;41.79;95276.88;5094472;28;20389;-86
2022/07/20 07:23:18;;;;;;;9.20;3.22;;;;;;;26.35;42.30;95299.59;5094234;28;20240;-87
2022/07/20 07:25:45;;;;;;;7.60;3.55;;;;;;;26.39;42.06;95299.94;5096234;28;20833;-86
2022/07/20 07:28:12;;;;;;;13.07;4.25;;;;;;;26.43;41.89;95301.91;5095565;28;20572;-86
2022/07/20 07:30:39;;;;;;;4.75;3.60;;;;;;;26.51;41.44;95304.25;5094763;28;20198;-85
2022/07/20 07:33:06;;;;;;;7.65;3.45;;;;;;;26.67;42.51;95297.56;5104745;28;20553;-86
2022/07/20 07:35:33;;;;;;;6.43;3.80;;;;;;;26.79;42.21;95287.09;5105403;28;20195;-86
2022/07/20 07:38:02;;;;;;;7.53;3.67;;;;;;;26.06;41.59;95159.56;5098623;28;20193;-87
2022/07/20 07:40:29;;;;;;;9.15;3.70;;;;;;;27.17;40.96;95302.50;5094207;28;20664;-86
2022/07/20 07:42:55;;;;;;;4.22;3.00;;;;;;;26.18;39.82;95141.25;5094066;28;20624;-86
2022/07/20 07:45:22;;;;;;;7.75;3.00;;;;;;;27.19;39.91;95282.06;5096127;28;20699;-85
2022/07/20 07:47:49;;;;;;;8.15;3.00;;;;;;;27.38;40.70;95295.91;5094606;28;20198;-86
2022/07/20 07:50:16;;;;;;;6.85;3.85;;;;;;;27.34;39.59;95304.47;5093067;28;20185;-84
2022/07/20 07:52:43;;;;;;;5.97;2.97;;;;;;;27.11;40.15;95256.13;5093782;28;20279;-86
2022/07/20 07:55:12;;;;;;;7.40;2.83;;;;;;;27.48;39.51;95292.72;5093787;28;20300;-85
2022/07/20 07:57:38;;;;;;;4.90;3.30;;;;;;;27.24;39.69;95250.66;5093696;28;20265;-86
2022/07/20 08:00:08;;;;;;;7.03;2.97;;;;;;;26.14;39.09;95069.31;5093236;28;20629;-85
2022/07/20 08:02:35;;;;;;;3.83;3.20;;;;;;;26.79;39.57;95161.13;5092957;28;20193;-84
2022/07/20 08:05:02;;;;;;;10.05;3.53;;;;;;;26.83;38.16;95148.34;5092958;28;20687;-87
2022/07/20 08:07:29;;;;;;;6.25;3.00;;;;;;;27.80;38.47;95292.38;5093427;28;20272;-85
2022/07/20 08:09:56;;;;;;;11.95;4.20;;;;;;;27.87;39.06;95285.19;5093072;28;20185;-86
2022/07/20 08:12:24;;;;;;;6.07;3.22;;;;;;;27.68;39.29;95231.94;5092579;28;20267;-84
2022/07/20 08:14:51;;;;;;;4.63;3.40;;;;;;;27.46;38.76;95168.63;5094185;28;20264;-85
2022/07/20 08:17:19;;;;;;;6.75;3.47;;;;;;;28.32;38.51;95277.38;5101220;28;20186;-86
2022/07/20 08:19:46;;;;;;;4.90;3.03;;;;;;;28.45;37.78;95276.34;5094499;28;20202;-84
2022/07/20 08:22:13;;;;;;;4.10;3.03;;;;;;;28.56;36.82;95267.59;5096977;28;20189;-85
2022/07/20 08:24:39;;;;;;;2.63;2.40;;;;;;;27.53;37.78;95095.75;5095153;28;20189;-84
2022/07/20 08:27:06;;;;;;;4.57;2.60;;;;;;;28.80;37.85;95275.38;5103119;28;20576;-85
2022/07/20 08:29:34;;;;;;;4.88;2.75;;;;;;;28.92;36.65;95276.91;5107673;28;20190;-84
2022/07/20 08:32:02;;;;;;;6.05;3.20;;;;;;;29.06;37.00;95271.34;5097553;28;20563;-86
2022/07/20 08:34:29;;;;;;;5.60;2.70;;;;;;;28.96;36.00;95241.19;5096803;28;20217;-85
2022/07/20 08:36:56;;;;;;;5.35;2.20;;;;;;;28.46;35.26;95136.66;5093052;28;20212;-84
2022/07/20 08:39:23;;;;;;;3.55;2.15;;;;;;;29.39;35.35;95268.72;5095224;28;20668;-86
2022/07/20 08:41:50;;;;;;;2.45;2.00;;;;;;;29.50;34.79;95272.31;5096936;28;20242;-86
2022/07/20 08:44:17;;;;;;;2.75;1.98;;;;;;;29.58;34.16;95273.75;5092596;28;20208;-85
2022/07/20 08:46:46;;;;;;;2.17;1.90;;;;;;;29.56;33.62;95270.56;5093653;28;20241;-84
2022/07/20 08:49:13;;;;;;;3.53;1.95;;;;;;;28.98;34.55;95175.13;5094267;28;20190;-85
2022/07/20 08:51:40;;;;;;;3.08;2.28;;;;;;;29.67;33.88;95265.19;5094173;28;20193;-85
2022/07/20 08:54:07;;;;;;;3.28;2.15;;;;;;;29.64;33.50;95259.63;5094401;28;20206;-84
2022/07/20 08:56:35;;;;;;;2.35;2.03;;;;;;;29.68;33.94;95266.78;5093046;28;20197;-84
2022/07/20 08:59:02;;;;;;;2.17;1.98;;;;;;;29.73;33.10;95266.84;5097804;28;20193;-85
2022/07/20 09:01:30;;;;;;;2.10;1.90;;;;;;;29.78;33.14;95262.69;5093934;28;20205;-85
2022/07/20 09:04:10;;;;;;;2.20;2.00;;;;;;;28.37;33.41;95039.91;5094472;28;20199;-85
2022/07/20 09:06:45;;;;;;;2.70;2.15;;;;;;;29.86;33.83;95257.78;5096027;28;20182;-84
2022/07/20 09:09:13;;;;;;;3.63;2.10;;;;;;;28.83;33.30;95082.69;5095440;28;20572;-82
2022/07/20 09:11:41;;;;;;;5.18;1.88;;;;;;;29.97;32.95;95251.59;5096216;28;20192;-83
2022/07/20 09:14:07;;;;;;;2.28;2.00;;;;;;;29.82;32.83;95218.97;5102378;28;20213;-82
2022/07/20 09:16:40;;;;;;;4.68;2.20;;;;;;;30.06;32.09;95257.25;5098550;28;20186;-82
2022/07/20 09:19:08;;;;;;;4.18;1.95;;;;;;;29.77;33.29;95211.00;5092577;28;20280;-81
2022/07/20 09:21:35;;;;;;;2.47;2.22;;;;;;;29.17;33.08;95121.13;5095872;28;20193;-82
2022/07/20 09:24:04;;;;;;;3.80;2.13;;;;;;;30.06;32.51;95251.97;5092497;28;20182;-82
2022/07/20 09:26:32;;;;;;;4.07;2.17;;;;;;;30.16;31.93;95253.97;5093373;28;20200;-84
2022/07/20 09:29:00;;;;;;;2.38;2.17;;;;;;;29.59;33.00;95165.44;5094798;28;20645;-82
2022/07/20 09:31:30;;;;;;;2.75;2.30;;;;;;;30.11;32.32;95248.59;5092554;28;20185;-85
2022/07/20 09:34:22;;;;;;;2.40;2.20;;;;;;;30.03;31.95;95225.28;5090475;28;20209;-82
2022/07/20 09:36:49;;;;;;;4.47;1.80;;;;;;;29.41;32.59;95124.34;5091293;28;20224;-86
2022/07/20 09:39:18;;;;;;;5.03;2.47;;;;;;;29.66;32.13;95173.97;5090356;28;20195;-84
2022/07/20 09:41:51;;;;;;;4.20;1.92;;;;;;;30.12;32.20;95235.16;5091924;28;20182;-82
2022/07/20 09:44:22;;;;;;;7.25;2.38;;;;;;;30.13;32.00;95242.00;5099930;28;20185;-81
2022/07/20 09:46:50;;;;;;;3.85;2.17;;;;;;;30.15;32.14;95233.91;5107136;28;20230;-81
2022/07/20 09:49:18;;;;;;;3.10;1.98;;;;;;;30.18;31.70;95230.75;5100638;28;20196;-82
2022/07/20 09:51:47;;;;;;;2.95;1.70;;;;;;;30.19;31.37;95222.59;5105072;28;20194;-81
2022/07/20 09:54:17;;;;;;;4.25;2.22;;;;;;;30.09;31.70;95230.34;5101109;28;20205;-80
2022/07/20 09:56:45;;;;;;;4.50;1.98;;;;;;;29.72;32.18;95170.34;5090300;28;20182;-83
2022/07/20 09:59:14;;;;;;;4.43;1.90;;;;;;;30.04;32.26;95218.97;5089807;28;20645;-82
2022/07/20 10:01:44;;;;;;;2.45;1.90;;;;;;;30.07;32.12;95232.47;5090356;28;20186;-80
2022/07/20 10:04:11;;;;;;;2.80;1.85;;;;;;;29.80;31.85;95186.78;5089980;28;20662;-82
2022/07/20 10:06:46;;;;;;;1.98;1.80;;;;;;;30.06;32.19;95222.97;5091125;28;20193;-81
2022/07/20 10:09:14;;;;;;;2.78;1.90;;;;;;;30.07;31.43;95213.19;5091130;28;20204;-82
2022/07/20 10:11:41;;;;;;;3.90;2.00;;;;;;;30.08;31.30;95206.88;5090314;28;20193;-83
2022/07/20 10:14:09;;;;;;;3.33;1.88;;;;;;;30.00;31.36;95198.34;5086532;28;20783;-80
2022/07/20 10:16:38;;;;;;;4.30;2.15;;;;;;;29.89;32.19;95201.13;5086663;28;20612;-81
2022/07/20 10:19:05;;;;;;;2.92;1.75;;;;;;;29.82;32.05;95180.19;5088984;28;20242;-82
2022/07/20 10:21:34;;;;;;;2.92;1.85;;;;;;;29.94;32.43;95195.91;5090877;28;20189;-82
2022/07/20 10:24:22;;;;;;;3.95;2.15;;;;;;;29.20;32.17;95082.97;5100066;28;20194;-82
2022/07/20 10:26:51;;;;;;;2.78;1.80;;;;;;;29.94;31.91;95193.28;5097921;28;20200;-81
2022/07/20 10:29:26;;;;;;;4.97;1.92;;;;;;;29.92;32.06;95187.44;5099810;28;20189;-80
2022/07/20 10:31:55;;;;;;;7.35;2.30;;;;;;;29.95;32.23;95195.66;5104535;28;20189;-81
2022/07/20 10:34:37;;;;;;;3.47;1.85;;;;;;;29.90;31.63;95184.25;5103155;28;20249;-84
2022/07/20 10:37:25;;;;;;;2.75;2.08;;;;;;;29.98;31.72;95189.88;5101653;28;20197;-82
2022/07/20 10:39:54;;;;;;;1.77;1.67;;;;;;;30.00;32.26;95182.50;5089558;28;20193;-82
2022/07/20 10:42:25;;;;;;;4.78;2.08;;;;;;;29.96;31.91;95186.69;5087744;28;20552;-79
2022/07/20 10:44:53;;;;;;;3.45;1.98;;;;;;;29.57;31.80;95114.78;5088149;28;20221;-80
2022/07/20 10:47:42;;;;;;;2.33;2.05;;;;;;;29.99;31.71;95175.66;5087666;28;20599;-82
2022/07/20 10:50:11;;;;;;;2.90;1.70;;;;;;;29.98;31.72;95158.22;5090738;28;20205;-84
2022/07/20 10:52:38;;;;;;;1.85;1.75;;;;;;;30.01;31.94;95159.59;5091056;28;20182;-81
2022/07/20 10:55:06;;;;;;;2.03;1.80;;;;;;;30.00;31.74;95157.97;5090835;28;20212;-82
2022/07/20 10:57:35;;;;;;;2.40;1.77;;;;;;;30.02;31.92;95155.91;5091630;28;20205;-84
2022/07/20 11:00:14;;;;;;;3.63;1.73;;;;;;;29.70;31.89;95100.44;5091371;28;20189;-83
2022/07/20 11:02:41;;;;;;;3.78;1.95;;;;;;;30.03;31.70;95149.56;5090826;28;20306;-81
2022/07/20 11:05:21;;;;;;;2.42;1.83;;;;;;;30.05;31.92;95155.38;5092331;28;20198;-85
2022/07/20 11:07:48;;;;;;;3.90;2.03;;;;;;;30.06;31.86;95145.66;5091295;28;20216;-84
2022/07/20 11:10:26;;;;;;;2.33;2.13;;;;;;;29.77;31.89;95094.97;5091621;28;20772;-85
2022/07/20 11:12:57;;;;;;;3.13;1.80;;;;;;;30.12;32.19;95152.56;5091552;28;20196;-81
2022/07/20 11:15:25;;;;;;;4.68;2.20;;;;;;;30.05;31.91;95144.84;5091000;28;20304;-83
2022/07/20 11:17:55;;;;;;;1.65;1.52;;;;;;;30.08;32.03;95146.97;5090196;28;20201;-83
2022/07/20 11:20:22;;;;;;;3.35;1.75;;;;;;;30.09;32.53;95140.66;5093086;28;20181;-82
2022/07/20 11:22:49;;;;;;;2.50;2.15;;;;;;;30.12;32.25;95137.53;5093150;28;20196;-83
2022/07/20 11:25:16;;;;;;;2.75;2.15;;;;;;;30.07;32.02;95137.47;5093674;28;20182;-82
2022/07/20 11:28:00;;;;;;;1.80;1.70;;;;;;;30.10;31.88;95129.06;5093483;28;20201;-83
2022/07/20 11:30:33;;;;;;;2.88;2.15;;;;;;;30.07;31.90;95116.38;5092858;28;20190;-84
2022/07/20 11:33:00;;;;;;;1.92;1.80;;;;;;;30.17;31.46;95128.91;5092319;28;20217;-84
2022/07/20 11:35:27;;;;;;;2.05;1.92;;;;;;;30.20;31.31;95131.03;5092892;28;20239;-83
2022/07/20 11:37:54;;;;;;;1.92;1.73;;;;;;;29.65;31.80;95037.91;5093103;28;20185;-84
2022/07/20 11:40:22;;;;;;;3.65;2.15;;;;;;;29.43;31.60;95010.75;5092290;28;20182;-84
2022/07/20 11:43:08;;;;;;;1.92;1.73;;;;;;;30.19;31.95;95118.91;5092712;28;20189;-83